Terminal Aerodrome Forecast
Issued by NWS

Home | Current Version | Previous Version | Text Only | Print | Product List | Glossary On
Versions: 1 2 3 4 5 6 7 8 9 10 11 12 13
000
FTUS45 KVEF 191730
TAFVGT
TAF
KVGT 191730Z 1918/2018 12006KT P6SM FEW150 FEW250
     FM200000 18006KT P6SM FEW150 FEW250
     FM200400 32005KT P6SM FEW250
     FM201600 VRB05KT P6SM FEW150 FEW250=

USA.gov is the U.S. government's official web portal to all federal, state and local government web resources and services.